»·PEaware :: N320SB KAMA-KRNO

N320SB :: KAMA-KRNO

FLIGHT INFORMATION

Flight Status: Arrived
Operator: Privately registered:
United States
More flights under this callsign
Pilot: Oshane D. (17945)
Aircraft: AIRBUS A320
(A320)
More flights by this aircraft type
Origin: KAMA Amarillo Intl
United States
Destination: KRNO Reno/Tahoe Intl
United States
More flights between these airports :: More routes between these airports
Route: +PNH J58 ILC J198 MVA
File this flight plan on PilotEdge
Remarks: RMK / SIMBRIEF
Altitude:
(Current/Filed)
36,000ft
Speed:
(Current/Filed)
446kts
Departed: 15-Nov-19 04:51 PM
Arrived: 15-Nov-19 07:28 PM
Distance/Time
Traveled:
897nm/2:37
Distance/Time
To Go:
Arrived

Flight Plot

Page will automatically refresh every two minutes.

Flight plan parsing failed; only flown route is shown


Map Options




Map Legend


Flown Route
Filed Route
Departure Airport
Arrival Airport
Navaid (VOR, NDB)
Fix

Horizontal Profiles

Position Reports

Time Latitude Longitude Heading Altitude Ground
Speed
15-Nov-19 16:09 35.219094 -101.706470 145 3615ft 0kts
15-Nov-19 16:10 35.219094 -101.706470 145 3615ft 0kts
15-Nov-19 16:11 35.219094 -101.706470 145 3615ft 0kts
15-Nov-19 16:12 35.219094 -101.706470 145 3615ft 0kts
15-Nov-19 16:13 35.219094 -101.706470 145 3615ft 0kts
15-Nov-19 16:14 35.219094 -101.706470 145 3615ft 0kts
15-Nov-19 16:15 35.219094 -101.706470 145 3615ft 0kts
15-Nov-19 16:16 35.219094 -101.706470 145 3615ft 0kts
15-Nov-19 16:17 35.219094 -101.706470 145 3615ft 0kts
15-Nov-19 16:18 35.219094 -101.706470 145 3615ft 0kts
15-Nov-19 16:19 35.219094 -101.706470 145 3615ft 0kts
15-Nov-19 16:20 35.219094 -101.706470 145 3615ft 0kts
15-Nov-19 16:21 35.219094 -101.706470 145 3615ft 0kts
15-Nov-19 16:22 35.219094 -101.706470 145 3615ft 0kts
15-Nov-19 16:23 35.219094 -101.706470 145 3615ft 0kts
15-Nov-19 16:24 35.219094 -101.706470 145 3615ft 0kts
15-Nov-19 16:26 35.219094 -101.706470 145 3615ft 0kts
15-Nov-19 16:27 35.219094 -101.706470 145 3615ft 0kts
15-Nov-19 16:28 35.219094 -101.706470 145 3615ft 0kts
15-Nov-19 16:29 35.219094 -101.706470 145 3615ft 0kts
15-Nov-19 16:30 35.219094 -101.706470 145 3615ft 0kts
15-Nov-19 16:31 35.219094 -101.706470 145 3615ft 0kts
15-Nov-19 16:32 35.219094 -101.706470 145 3615ft 0kts
15-Nov-19 16:33 35.219094 -101.706470 145 3615ft 0kts
15-Nov-19 16:34 35.219094 -101.706470 145 3615ft 0kts
15-Nov-19 16:35 35.219095 -101.706470 145 3615ft 0kts
15-Nov-19 16:36 35.219095 -101.706470 145 3615ft 0kts
15-Nov-19 16:37 35.219403 -101.706959 100 3615ft 2kts
15-Nov-19 16:38 35.219266 -101.707583 46 3615ft 1kts
15-Nov-19 16:39 35.219230 -101.707626 44 3615ft 0kts
15-Nov-19 16:40 35.219239 -101.707615 44 3615ft 0kts
15-Nov-19 16:41 35.219340 -101.707491 44 3615ft 0kts
15-Nov-19 16:42 35.219721 -101.707033 40 3615ft 0kts
15-Nov-19 16:43 35.219721 -101.707033 40 3615ft 0kts
15-Nov-19 16:44 35.219721 -101.707033 40 3615ft 0kts
15-Nov-19 16:45 35.219956 -101.706915 7 3615ft 5kts
15-Nov-19 16:45 35.221556 -101.706732 43 3615ft 12kts
15-Nov-19 16:46 35.225091 -101.702249 44 3615ft 21kts
15-Nov-19 16:48 35.229077 -101.698344 323 3615ft 12kts
15-Nov-19 16:48 35.229872 -101.699261 315 3615ft 0kts
15-Nov-19 16:49 35.229873 -101.699262 315 3615ft 0kts
15-Nov-19 16:50 35.227520 -101.704527 222 3615ft 96kts
15-Nov-19 16:51 35.195477 -101.743640 220 5941ft 171kts
15-Nov-19 16:52 35.156223 -101.791532 225 8160ft 238kts
15-Nov-19 16:53 35.103670 -101.856210 226 10679ft 289kts
15-Nov-19 16:54 35.039829 -101.934459 227 12623ft 347kts
15-Nov-19 16:55 34.970884 -102.021132 227 15563ft 355kts
15-Nov-19 16:56 34.899901 -102.108196 227 17060ft 364kts
15-Nov-19 16:57 34.828416 -102.197518 228 16959ft 363kts
15-Nov-19 16:58 34.759072 -102.287516 228 16867ft 362kts
15-Nov-19 16:59 34.687436 -102.376691 228 17787ft 371kts
15-Nov-19 17:00 34.677707 -102.490196 306 20079ft 364kts
15-Nov-19 17:01 34.750289 -102.576019 295 22055ft 372kts
15-Nov-19 17:02 34.793203 -102.692453 293 23504ft 376kts
15-Nov-19 17:03 34.836687 -102.811064 292 25261ft 384kts
15-Nov-19 17:04 34.880688 -102.931388 292 26851ft 392kts
15-Nov-19 17:05 34.925637 -103.054705 292 28298ft 399kts
15-Nov-19 17:06 34.971540 -103.181076 292 29610ft 406kts
15-Nov-19 17:07 35.017801 -103.309038 291 30785ft 412kts
15-Nov-19 17:08 35.064495 -103.438759 291 31860ft 417kts
15-Nov-19 17:09 35.111398 -103.569397 291 33111ft 413kts
15-Nov-19 17:10 35.157538 -103.698601 290 34368ft 407kts
15-Nov-19 17:11 35.202398 -103.824709 290 35598ft 399kts
15-Nov-19 17:12 35.246800 -103.950023 289 36178ft 395kts
15-Nov-19 17:13 35.290435 -104.073684 289 36196ft 395kts
15-Nov-19 17:14 35.334361 -104.198666 289 36210ft 396kts
15-Nov-19 17:15 35.378084 -104.323547 289 36218ft 396kts
15-Nov-19 17:16 35.421617 -104.448390 289 36227ft 395kts
15-Nov-19 17:17 35.465080 -104.573535 289 36237ft 395kts
15-Nov-19 17:18 35.508320 -104.698544 289 36259ft 395kts
15-Nov-19 17:19 35.551599 -104.824181 289 36273ft 395kts
15-Nov-19 17:20 35.594534 -104.949356 289 36266ft 395kts
15-Nov-19 17:21 35.637298 -105.074402 288 36257ft 395kts
15-Nov-19 17:22 35.682053 -105.199175 291 36257ft 396kts
15-Nov-19 17:23 35.729289 -105.322144 290 36255ft 395kts
15-Nov-19 17:24 35.776467 -105.445419 290 36261ft 395kts
15-Nov-19 17:25 35.823794 -105.569538 290 36267ft 397kts
15-Nov-19 17:26 35.870801 -105.693317 290 36320ft 396kts
15-Nov-19 17:27 35.917804 -105.817548 290 36346ft 396kts
15-Nov-19 17:28 35.964438 -105.941285 290 36356ft 395kts
15-Nov-19 17:29 36.010853 -106.064916 290 36351ft 394kts
15-Nov-19 17:30 36.057192 -106.188836 290 36344ft 394kts
15-Nov-19 17:31 36.103275 -106.312563 290 36340ft 394kts
15-Nov-19 17:32 36.149356 -106.436812 290 36342ft 394kts
15-Nov-19 17:33 36.195255 -106.561090 290 36345ft 395kts
15-Nov-19 17:34 36.241186 -106.685953 290 36357ft 397kts
15-Nov-19 17:35 36.287192 -106.811521 290 36373ft 398kts
15-Nov-19 17:36 36.333171 -106.937530 290 36347ft 398kts
15-Nov-19 17:37 36.379208 -107.064206 290 36317ft 399kts
15-Nov-19 17:38 36.424935 -107.190544 290 36309ft 399kts
15-Nov-19 17:39 36.470558 -107.317105 290 36313ft 399kts
15-Nov-19 17:40 36.516234 -107.444277 290 36313ft 400kts
15-Nov-19 17:41 36.561813 -107.571707 290 36316ft 400kts
15-Nov-19 17:42 36.607415 -107.699740 289 36329ft 401kts
15-Nov-19 17:43 36.652778 -107.827626 289 36344ft 401kts
15-Nov-19 17:44 36.698065 -107.955845 289 36334ft 400kts
15-Nov-19 17:45 36.743134 -108.083985 290 36297ft 400kts
15-Nov-19 17:46 36.788577 -108.212061 290 36253ft 400kts
15-Nov-19 17:47 36.833632 -108.339275 290 36254ft 400kts
15-Nov-19 17:48 36.879183 -108.468466 290 36261ft 400kts
15-Nov-19 17:49 36.924234 -108.596784 290 36258ft 401kts
15-Nov-19 17:50 36.968742 -108.724098 290 36267ft 402kts
15-Nov-19 17:51 37.013614 -108.853001 290 36274ft 402kts
15-Nov-19 17:52 37.058381 -108.982157 290 36273ft 401kts
15-Nov-19 17:53 37.103072 -109.111650 290 36289ft 400kts
15-Nov-19 17:54 37.147385 -109.240603 290 36250ft 400kts
15-Nov-19 17:55 37.191622 -109.369898 290 36162ft 400kts
15-Nov-19 17:56 37.235527 -109.498776 290 36087ft 400kts
15-Nov-19 17:57 37.279459 -109.628300 290 36014ft 400kts
15-Nov-19 17:58 37.323309 -109.758147 289 36023ft 400kts
15-Nov-19 17:59 37.366980 -109.888036 289 36033ft 400kts
15-Nov-19 18:00 37.410463 -110.017946 289 36126ft 400kts
15-Nov-19 18:01 37.453825 -110.148068 289 36267ft 400kts
15-Nov-19 18:02 37.497130 -110.278593 289 36289ft 401kts
15-Nov-19 18:03 37.540247 -110.409148 289 36281ft 401kts
15-Nov-19 18:04 37.583203 -110.539791 289 36279ft 401kts
15-Nov-19 18:05 37.626084 -110.670799 289 36286ft 402kts
15-Nov-19 18:06 37.669004 -110.802521 289 36297ft 404kts
15-Nov-19 18:07 37.711923 -110.934850 289 36293ft 405kts
15-Nov-19 18:08 37.754832 -111.067761 288 36282ft 406kts
15-Nov-19 18:09 37.797666 -111.201055 288 36270ft 407kts
15-Nov-19 18:10 37.840465 -111.334867 288 36271ft 408kts
15-Nov-19 18:11 37.883234 -111.469214 288 36268ft 409kts
15-Nov-19 18:12 37.925893 -111.603855 288 36282ft 410kts
15-Nov-19 18:13 37.968466 -111.738868 288 36292ft 411kts
15-Nov-19 18:14 38.011149 -111.874881 287 36289ft 412kts
15-Nov-19 18:15 38.053668 -112.011035 287 36274ft 412kts
15-Nov-19 18:16 38.095832 -112.146707 287 36261ft 411kts
15-Nov-19 18:17 38.137922 -112.282800 287 36252ft 410kts
15-Nov-19 18:18 38.179857 -112.419055 287 36247ft 410kts
15-Nov-19 18:19 38.221512 -112.555061 287 36246ft 410kts
15-Nov-19 18:20 38.263127 -112.691604 287 36252ft 411kts
15-Nov-19 18:21 38.304668 -112.828589 287 36252ft 413kts
15-Nov-19 18:22 38.346099 -112.966118 286 36234ft 412kts
15-Nov-19 18:23 38.353266 -113.109970 263 36229ft 406kts
15-Nov-19 18:24 38.342284 -113.254525 263 36222ft 406kts
15-Nov-19 18:25 38.331251 -113.398646 263 36211ft 405kts
15-Nov-19 18:26 38.320077 -113.542498 263 36208ft 405kts
15-Nov-19 18:27 38.308669 -113.686850 262 36208ft 405kts
15-Nov-19 18:28 38.297130 -113.830518 262 36224ft 406kts
15-Nov-19 18:29 38.285388 -113.974671 262 36230ft 406kts
15-Nov-19 18:30 38.273448 -114.118956 262 36217ft 407kts
15-Nov-19 18:31 38.261318 -114.263375 262 36209ft 407kts
15-Nov-19 18:32 38.252035 -114.408330 272 36210ft 410kts
15-Nov-19 18:33 38.266401 -114.553324 275 36214ft 411kts
15-Nov-19 18:34 38.281074 -114.699492 274 36215ft 412kts
15-Nov-19 18:35 38.295561 -114.845547 274 36224ft 413kts
15-Nov-19 18:36 38.309939 -114.992317 275 36229ft 414kts
15-Nov-19 18:37 38.324046 -115.138468 275 36241ft 414kts
15-Nov-19 18:38 38.338102 -115.285764 275 36250ft 415kts
15-Nov-19 18:39 38.351937 -115.432747 275 36253ft 416kts
15-Nov-19 18:40 38.365622 -115.580360 275 36263ft 416kts
15-Nov-19 18:41 38.379178 -115.728536 274 36268ft 417kts
15-Nov-19 18:43 38.392509 -115.876305 274 36277ft 418kts
15-Nov-19 18:44 38.405691 -116.024570 275 36277ft 418kts
15-Nov-19 18:45 38.418692 -116.172935 275 36262ft 418kts
15-Nov-19 18:46 38.431497 -116.321333 275 36263ft 418kts
15-Nov-19 18:47 38.444119 -116.469894 275 36261ft 418kts
15-Nov-19 18:48 38.456561 -116.618622 275 36262ft 419kts
15-Nov-19 18:49 38.468836 -116.767609 275 36267ft 420kts
15-Nov-19 18:50 38.480953 -116.917078 276 36276ft 421kts
15-Nov-19 18:51 38.492925 -117.067156 276 36282ft 422kts
15-Nov-19 18:52 38.504736 -117.217677 276 36280ft 423kts
15-Nov-19 18:53 38.516373 -117.368504 276 36279ft 424kts
15-Nov-19 18:54 38.527810 -117.519288 276 36280ft 424kts
15-Nov-19 18:55 38.539101 -117.670758 276 36281ft 425kts
15-Nov-19 18:56 38.550213 -117.822497 276 36283ft 425kts
15-Nov-19 18:57 38.561126 -117.973995 276 36278ft 425kts
15-Nov-19 18:58 38.579096 -118.123899 283 36270ft 424kts
15-Nov-19 18:59 38.601387 -118.272471 283 35855ft 418kts
15-Nov-19 19:00 38.623061 -118.418035 283 34705ft 406kts
15-Nov-19 19:01 38.643731 -118.558099 284 32943ft 391kts
15-Nov-19 19:01 38.660094 -118.669742 283 31509ft 379kts
15-Nov-19 19:03 38.682247 -118.822269 284 29512ft 363kts
15-Nov-19 19:04 38.700402 -118.948302 284 27865ft 349kts
15-Nov-19 19:04 38.714851 -119.049267 283 26525ft 338kts
15-Nov-19 19:05 38.731556 -119.166902 283 24919ft 330kts
15-Nov-19 19:07 38.750534 -119.301506 282 23072ft 321kts
15-Nov-19 19:07 38.763630 -119.395216 282 21770ft 315kts
15-Nov-19 19:08 38.778954 -119.505445 282 20231ft 308kts
15-Nov-19 19:09 38.793903 -119.613656 282 19065ft 319kts
15-Nov-19 19:10 38.836360 -119.707984 343 18515ft 314kts
15-Nov-19 19:11 38.908016 -119.719392 354 16423ft 305kts
15-Nov-19 19:12 38.995021 -119.730192 354 16018ft 314kts
15-Nov-19 19:13 39.082737 -119.739657 3 15942ft 311kts
15-Nov-19 19:14 39.166724 -119.712722 13 14216ft 308kts
15-Nov-19 19:15 39.248640 -119.684465 14 11781ft 300kts
15-Nov-19 19:16 39.327423 -119.657883 13 10984ft 272kts
15-Nov-19 19:17 39.394242 -119.635431 13 9931ft 229kts
15-Nov-19 19:18 39.456474 -119.624071 3 9017ft 224kts
15-Nov-19 19:19 39.519707 -119.618650 4 9009ft 226kts
15-Nov-19 19:20 39.583116 -119.612997 3 9021ft 226kts
15-Nov-19 19:21 39.642920 -119.626171 318 9034ft 227kts
15-Nov-19 19:22 39.663073 -119.701075 270 8863ft 207kts
15-Nov-19 19:23 39.654168 -119.763437 203 8065ft 166kts
15-Nov-19 19:24 39.606713 -119.768620 181 6406ft 176kts
15-Nov-19 19:25 39.560876 -119.769105 180 5460ft 156kts
15-Nov-19 19:26 39.517375 -119.769218 180 4592ft 154kts
15-Nov-19 19:27 39.493798 -119.769283 186 4424ft 22kts
15-Nov-19 19:28 39.492712 -119.770330 256 4424ft 0kts
15-Nov-19 19:29 39.493540 -119.771558 0 4424ft 25kts
15-Nov-19 19:30 39.500784 -119.771528 359 4424ft 25kts
15-Nov-19 19:31 39.505877 -119.771953 284 4424ft 9kts
15-Nov-19 19:32 39.506525 -119.774226 358 4424ft 0kts

Navigation Log

Ident Type
Flight plan parsing failed, navigation log unavailable